Glenboig, United Kingdom
Current Conditions -  °F | °C
As of 8:50 AM on Friday 19 Dec 2014 (Local Time) from EGPF Reporting Station
Scattered Clouds Scattered Clouds  
Wind Chill: 32°   Ceiling: Unl
Heat Index: 39°   Visibility: 6mi
Dew Point: 34°   Wind: 10mph
Humidity: 81%   Direction: 250°WSW
Pressure: 29.59"   Gusts: NA
Location:  55.89°N, 4.05°W
Report Text: EGPF 190850Z AUTO 25009KT 9999 SCT035/// //////TCU 04/01 Q1002
Loading
Personal Weather Stations






























Interactive Weather Map New forecast layout! Learn more

10-Day Weather Forecast

Advertisements
Track Severe Weather on mobile